createdAt,value
2018-06-25T00:00:22.079Z,4.17
2018-06-25T00:03:02.913Z,2.97
2018-06-25T00:05:41.840Z,3.33
2018-06-25T00:11:04.898Z,3.23
2018-06-25T00:13:45.308Z,3.13
2018-06-25T00:16:25.276Z,3.73
2018-06-25T00:19:07.008Z,3.50
2018-06-25T00:21:49.441Z,3.43
2018-06-25T00:24:29.680Z,3.80
2018-06-25T00:27:07.904Z,4.83
2018-06-25T00:29:50.391Z,3.57
2018-06-25T00:32:33.348Z,2.63
2018-06-25T00:35:13.225Z,3.57
2018-06-25T00:37:52.695Z,3.50
2018-06-25T00:40:32.826Z,3.80
2018-06-25T00:43:11.986Z,3.17
2018-06-25T00:45:51.968Z,3.70
2018-06-25T00:48:32.956Z,3.47
2018-06-25T00:51:14.286Z,5.20
2018-06-25T00:53:53.755Z,3.70
2018-06-25T00:56:33.789Z,3.50
2018-06-25T00:59:19.997Z,4.00
2018-06-25T01:02:01.531Z,4.13
2018-06-25T01:04:42.191Z,3.23
2018-06-25T01:07:23.415Z,4.03
2018-06-25T01:10:01.449Z,3.30
2018-06-25T01:12:42.101Z,4.20
2018-06-25T01:15:22.628Z,3.87
2018-06-25T01:18:01.068Z,3.90
2018-06-25T01:20:41.347Z,3.93
2018-06-25T01:23:21.556Z,4.10
2018-06-25T01:26:02.138Z,3.50
2018-06-25T01:28:39.748Z,3.77
2018-06-25T01:31:19.231Z,3.80
2018-06-25T01:33:58.200Z,4.20
2018-06-25T01:36:37.893Z,5.13
2018-06-25T01:39:16.058Z,4.10
2018-06-25T01:44:39.436Z,3.67
2018-06-25T01:47:21.162Z,4.30
2018-06-25T01:49:59.425Z,5.00
2018-06-25T01:52:38.653Z,4.90
2018-06-25T01:58:00.258Z,5.33
2018-06-25T02:00:40.451Z,5.07
2018-06-25T02:03:21.453Z,5.03
2018-06-25T02:05:59.122Z,5.20
2018-06-25T02:08:39.032Z,4.87
2018-06-25T02:14:01.147Z,5.43
2018-06-25T02:16:44.127Z,5.70
2018-06-25T02:19:24.513Z,7.00
2018-06-25T02:22:02.942Z,6.80
2018-06-25T02:24:42.491Z,7.00
2018-06-25T02:27:21.964Z,7.10
2018-06-25T02:30:02.774Z,6.97
2018-06-25T02:32:43.365Z,8.27
2018-06-25T02:35:24.268Z,7.73
2018-06-25T02:38:03.220Z,7.50
2018-06-25T02:40:42.247Z,7.87
2018-06-25T02:43:22.537Z,7.17
2018-06-25T02:46:02.378Z,8.50
2018-06-25T02:48:44.845Z,8.13
2018-06-25T02:51:23.697Z,8.73
2018-06-25T02:54:03.836Z,7.83
2018-06-25T02:56:43.075Z,6.93
2018-06-25T02:59:22.997Z,9.47
2018-06-25T03:04:45.682Z,7.87
2018-06-25T03:07:26.684Z,9.33
2018-06-25T03:10:06.758Z,8.30
2018-06-25T03:12:48.019Z,8.37
2018-06-25T03:15:27.953Z,7.97
2018-06-25T03:18:09.937Z,7.80
2018-06-25T03:20:50.300Z,8.60
2018-06-25T03:23:32.720Z,9.90
2018-06-25T03:28:54.601Z,9.13
2018-06-25T03:31:33.757Z,10.27
2018-06-25T03:34:13.569Z,9.90
2018-06-25T03:36:55.283Z,9.13
2018-06-25T03:39:35.639Z,9.63
2018-06-25T03:42:16.824Z,8.63
2018-06-25T03:44:57.367Z,9.57
2018-06-25T03:47:37.786Z,9.27
2018-06-25T03:50:17.909Z,9.13
2018-06-25T03:52:58.283Z,8.80
2018-06-25T03:55:37.542Z,9.23
2018-06-25T03:58:18.319Z,7.93
2018-06-25T04:00:58.424Z,9.00
2018-06-25T04:03:38.488Z,9.33
2018-06-25T04:06:17.039Z,9.20
2018-06-25T04:08:59.048Z,11.30
2018-06-25T04:11:38.851Z,11.00
2018-06-25T04:14:18.969Z,10.77
2018-06-25T04:16:57.805Z,10.93
2018-06-25T04:19:38.476Z,11.40
2018-06-25T04:22:16.559Z,10.80
2018-06-25T04:24:55.919Z,11.33
2018-06-25T04:27:35.776Z,10.93
2018-06-25T04:33:03.813Z,9.80
2018-06-25T04:35:44.265Z,10.20
2018-06-25T04:38:27.496Z,11.37
2018-06-25T04:41:05.738Z,10.93
2018-06-25T04:43:46.961Z,10.97
2018-06-25T04:46:27.767Z,11.03
2018-06-25T04:49:08.419Z,11.80
2018-06-25T04:51:48.362Z,12.00
2018-06-25T04:57:13.199Z,11.17
2018-06-25T04:59:56.551Z,9.73
2018-06-25T05:02:41.196Z,11.20
2018-06-25T05:05:20.638Z,11.07
2018-06-25T05:08:00.690Z,11.20
2018-06-25T05:10:41.550Z,11.07
2018-06-25T05:13:20.133Z,13.00
2018-06-25T05:15:58.286Z,10.70
2018-06-25T05:21:27.757Z,10.97
2018-06-25T05:24:09.594Z,11.73
2018-06-25T05:26:51.172Z,10.67
2018-06-25T05:32:14.075Z,10.17
2018-06-25T05:34:54.399Z,10.00
2018-06-25T05:40:18.970Z,9.57
2018-06-25T05:42:58.800Z,9.60
2018-06-25T05:48:26.094Z,8.47
2018-06-25T05:53:51.599Z,7.90
2018-06-25T05:56:31.238Z,8.60
2018-06-25T05:59:13.987Z,8.07
2018-06-25T06:01:54.735Z,7.43
2018-06-25T06:04:36.212Z,7.50
2018-06-25T06:07:19.797Z,7.17
2018-06-25T06:10:01.690Z,7.40
2018-06-25T06:12:40.966Z,7.67
2018-06-25T06:15:21.784Z,7.50
2018-06-25T06:18:02.170Z,6.83
2018-06-25T06:23:23.418Z,6.83
2018-06-25T06:28:43.764Z,6.73
2018-06-25T06:31:24.799Z,6.30
2018-06-25T06:34:07.756Z,6.27
2018-06-25T06:36:47.813Z,6.33
2018-06-25T06:39:29.290Z,5.83
2018-06-25T06:42:09.839Z,6.90
2018-06-25T06:44:48.714Z,6.87
2018-06-25T06:47:30.585Z,5.43
2018-06-25T06:50:12.390Z,5.60
2018-06-25T06:52:51.223Z,6.60
2018-06-25T06:55:34.143Z,6.73
2018-06-25T06:58:15.362Z,5.40
2018-06-25T07:09:08.719Z,5.60
2018-06-25T07:11:53.944Z,5.53
2018-06-25T07:14:36.660Z,5.50
2018-06-25T07:17:17.114Z,4.90
2018-06-25T07:19:57.162Z,5.13
2018-06-25T07:22:37.689Z,5.10
2018-06-25T07:28:03.750Z,5.07
2018-06-25T07:30:44.386Z,5.33
2018-06-25T07:33:28.160Z,5.40
2018-06-25T07:36:07.092Z,5.33
2018-06-25T07:38:47.862Z,4.40
2018-06-25T07:41:27.359Z,3.70
2018-06-25T07:44:05.893Z,4.10
2018-06-25T07:46:43.761Z,3.57
2018-06-25T07:49:24.455Z,4.50
2018-06-25T07:52:05.262Z,4.13
2018-06-25T07:57:30.904Z,3.20
2018-06-25T08:00:12.311Z,3.73
2018-06-25T08:02:52.871Z,3.80
2018-06-25T08:08:15.695Z,2.43
2018-06-25T08:10:55.261Z,2.60
2018-06-25T08:13:39.507Z,2.50
2018-06-25T08:16:17.988Z,2.50
2018-06-25T08:24:25.671Z,2.33
2018-06-25T08:27:00.809Z,2.97
2018-06-25T08:29:40.507Z,2.90
2018-06-25T08:35:02.750Z,5.50
2018-06-25T08:37:44.916Z,3.53
2018-06-25T08:40:25.381Z,2.50
2018-06-25T08:43:05.310Z,3.63
2018-06-25T08:51:11.466Z,2.50
2018-06-25T08:53:40.257Z,2.40
2018-06-25T08:56:08.082Z,2.70
2018-06-25T08:58:34.974Z,3.03
2018-06-25T09:01:02.515Z,2.70
2018-06-25T09:03:32.121Z,2.37
2018-06-25T09:06:01.686Z,2.53
2018-06-25T09:08:29.384Z,2.17
2018-06-25T09:10:57.182Z,2.20
2018-06-25T09:13:25.659Z,2.20
2018-06-25T09:15:53.721Z,2.53
2018-06-25T09:18:22.603Z,2.53
2018-06-25T09:20:50.930Z,5.13
2018-06-25T09:23:31.271Z,3.37
2018-06-25T09:25:59.452Z,1.83
2018-06-25T09:28:29.713Z,2.50
2018-06-25T09:30:58.477Z,1.73
2018-06-25T09:33:27.485Z,2.00
2018-06-25T09:35:55.387Z,1.47
2018-06-25T09:38:23.386Z,1.50
2018-06-25T09:40:51.343Z,2.30
2018-06-25T09:43:19.926Z,2.13
2018-06-25T09:45:47.997Z,1.80
2018-06-25T09:48:15.073Z,2.50
2018-06-25T09:50:42.809Z,2.40
2018-06-25T09:53:12.899Z,1.40
2018-06-25T09:55:41.079Z,1.60
2018-06-25T09:58:09.728Z,1.70
2018-06-25T10:00:36.713Z,1.60
2018-06-25T10:03:04.457Z,3.13
2018-06-25T10:05:32.771Z,3.80
2018-06-25T10:08:01.856Z,0.80
2018-06-25T10:10:29.854Z,1.70
2018-06-25T10:12:56.910Z,2.20
2018-06-25T10:15:23.781Z,8.40
2018-06-25T10:17:57.196Z,6.07
2018-06-25T10:20:25.606Z,3.00
2018-06-25T10:22:52.597Z,3.13
2018-06-25T10:25:19.554Z,5.67
2018-06-25T10:27:46.513Z,1.60
2018-06-25T10:30:14.221Z,7.20
2018-06-25T10:32:41.082Z,4.60
2018-06-25T10:35:08.014Z,2.93
2018-06-25T10:37:34.973Z,5.83
2018-06-25T10:40:01.925Z,1.43
2018-06-25T10:42:28.884Z,1.60
2018-06-25T10:44:55.922Z,1.23
2018-06-25T10:47:22.873Z,1.23
2018-06-25T10:49:49.750Z,3.57
2018-06-25T10:52:16.718Z,1.67
2018-06-25T10:54:43.694Z,1.60
2018-06-25T10:57:10.551Z,1.90
2018-06-25T10:59:37.678Z,5.10
2018-06-25T11:02:04.871Z,1.70
2018-06-25T11:04:31.749Z,1.10
2018-06-25T11:06:59.434Z,1.33
2018-06-25T11:09:26.472Z,1.80
2018-06-25T11:11:53.435Z,1.30
2018-06-25T11:14:20.322Z,1.40
2018-06-25T11:16:47.554Z,1.80
2018-06-25T11:19:14.532Z,2.13
2018-06-25T11:21:41.405Z,1.00
2018-06-25T11:24:15.453Z,1.23
2018-06-25T11:26:52.094Z,1.17
2018-06-25T11:29:19.871Z,0.93
2018-06-25T11:31:46.837Z,3.27
2018-06-25T11:34:16.276Z,0.87
2018-06-25T11:36:50.339Z,1.90
2018-06-25T11:39:17.350Z,1.33
2018-06-25T11:41:44.538Z,2.73
2018-06-25T11:44:11.482Z,1.07
2018-06-25T11:46:38.521Z,0.70
2018-06-25T11:49:05.428Z,1.07
2018-06-25T11:51:32.416Z,1.60
2018-06-25T11:53:59.472Z,1.13
2018-06-25T11:56:34.719Z,2.20
2018-06-25T11:59:01.712Z,1.50
2018-06-25T12:01:28.621Z,1.33
2018-06-25T12:03:55.519Z,1.40
2018-06-25T12:06:23.254Z,2.47
2018-06-25T12:08:50.105Z,1.87
2018-06-25T12:11:18.358Z,2.60
2018-06-25T12:13:46.539Z,1.33
2018-06-25T12:16:14.048Z,1.20
2018-06-25T12:18:40.988Z,1.27
2018-06-25T12:21:07.969Z,0.90
2018-06-25T12:23:45.366Z,1.23
2018-06-25T12:26:19.706Z,1.23
2018-06-25T12:28:47.680Z,1.07
2018-06-25T12:31:23.407Z,1.00
2018-06-25T12:34:00.507Z,1.10
2018-06-25T12:36:32.977Z,1.00
2018-06-25T12:39:08.057Z,3.53
2018-06-25T12:41:35.180Z,1.30
2018-06-25T12:44:12.855Z,0.93
2018-06-25T12:49:36.241Z,1.40
2018-06-25T12:52:18.515Z,3.20
2018-06-25T12:54:58.587Z,1.40
2018-06-25T12:57:39.696Z,1.63
2018-06-25T13:00:18.054Z,1.13
2018-06-25T13:02:45.817Z,1.27
2018-06-25T13:05:16.152Z,2.10
2018-06-25T13:07:45.116Z,1.20
2018-06-25T13:10:12.173Z,0.83
2018-06-25T13:12:39.090Z,1.30
2018-06-25T13:15:05.986Z,2.73
2018-06-25T13:17:33.720Z,3.40
2018-06-25T13:20:00.704Z,1.30
2018-06-25T13:22:27.605Z,1.47
2018-06-25T13:24:55.471Z,1.53
2018-06-25T13:27:23.624Z,1.10
2018-06-25T13:29:50.709Z,1.10
2018-06-25T13:32:29.798Z,1.17
2018-06-25T13:35:11.325Z,1.43
2018-06-25T13:37:39.284Z,4.00
2018-06-25T13:40:07.420Z,1.50
2018-06-25T13:42:34.431Z,1.07
2018-06-25T13:45:15.013Z,1.30
2018-06-25T13:47:42.010Z,1.57
2018-06-25T13:50:08.904Z,2.07
2018-06-25T13:52:35.831Z,2.00
2018-06-25T13:55:02.858Z,2.73
2018-06-25T13:57:31.058Z,3.43
2018-06-25T13:59:58.092Z,3.03
2018-06-25T14:02:27.568Z,1.60
2018-06-25T14:04:59.495Z,1.50
2018-06-25T14:07:31.211Z,2.23
2018-06-25T14:09:59.630Z,1.70
2018-06-25T14:12:28.140Z,2.30
2018-06-25T14:14:55.345Z,1.83
2018-06-25T14:17:22.343Z,3.23
2018-06-25T14:19:51.402Z,1.37
2018-06-25T14:22:20.297Z,1.37
2018-06-25T14:24:51.690Z,2.53
2018-06-25T14:27:18.706Z,1.60
2018-06-25T14:29:45.780Z,1.33
2018-06-25T14:32:12.771Z,1.43
2018-06-25T14:34:39.641Z,1.07
2018-06-25T14:37:07.971Z,1.33
2018-06-25T14:39:37.490Z,3.00
2018-06-25T14:42:04.676Z,1.07
2018-06-25T14:44:32.296Z,1.20
2018-06-25T14:46:59.233Z,6.83
2018-06-25T14:49:27.872Z,2.20
2018-06-25T14:51:54.950Z,1.00
2018-06-25T14:54:22.380Z,2.80
2018-06-25T14:56:51.248Z,5.00
2018-06-25T14:59:19.671Z,1.27
2018-06-25T15:01:50.668Z,1.10
2018-06-25T15:04:18.725Z,2.00
2018-06-25T15:06:52.716Z,1.07
2018-06-25T15:09:20.943Z,3.33
2018-06-25T15:11:48.620Z,2.30
2018-06-25T15:14:18.141Z,5.70
2018-06-25T15:16:47.446Z,1.60
2018-06-25T15:19:15.844Z,1.20
2018-06-25T15:21:44.462Z,2.20
2018-06-25T15:24:12.125Z,1.10
2018-06-25T15:26:39.541Z,1.20
2018-06-25T15:29:11.452Z,1.20
2018-06-25T15:31:40.530Z,2.23
2018-06-25T15:34:07.452Z,12.43
2018-06-25T15:36:34.410Z,1.23
2018-06-25T15:39:03.576Z,1.60
2018-06-25T15:41:30.552Z,1.40
2018-06-25T15:43:57.429Z,2.30
2018-06-25T15:46:24.500Z,1.70
2018-06-25T15:48:51.413Z,1.57
2018-06-25T15:51:18.484Z,1.40
2018-06-25T15:53:45.441Z,2.20
2018-06-25T15:56:26.156Z,1.07
2018-06-25T15:59:03.114Z,1.83
2018-06-25T16:01:30.502Z,1.20
2018-06-25T16:04:06.045Z,1.50
2018-06-25T16:06:42.374Z,1.40
2018-06-25T16:11:55.435Z,1.67
2018-06-25T16:14:23.605Z,1.37
2018-06-25T16:16:54.760Z,1.40
2018-06-25T16:19:38.047Z,1.27
2018-06-25T16:22:06.725Z,1.27
2018-06-25T16:24:35.749Z,1.00
2018-06-25T16:27:03.632Z,1.50
2018-06-25T16:29:45.184Z,2.90
2018-06-25T16:32:14.406Z,1.50
2018-06-25T16:34:41.852Z,1.63
2018-06-25T16:37:08.829Z,1.23
2018-06-25T16:39:42.962Z,2.03
2018-06-25T16:47:56.099Z,1.30
2018-06-25T16:50:38.702Z,1.60
2018-06-25T16:53:26.260Z,1.80
2018-06-25T16:56:13.172Z,1.20
2018-06-25T16:58:58.780Z,1.77
2018-06-25T17:01:27.121Z,1.60
2018-06-25T17:03:54.105Z,2.13
2018-06-25T17:06:21.041Z,1.17
2018-06-25T17:08:47.991Z,2.07
2018-06-25T17:11:14.957Z,2.33
2018-06-25T17:13:41.981Z,1.50
2018-06-25T17:16:08.941Z,4.60
2018-06-25T17:18:35.814Z,2.83
2018-06-25T17:21:03.460Z,3.33
2018-06-25T17:23:43.236Z,3.00
2018-06-25T17:26:23.596Z,1.97
2018-06-25T17:29:03.939Z,3.37
2018-06-25T17:31:42.659Z,2.17
2018-06-25T17:34:21.555Z,1.80
2018-06-25T17:37:03.954Z,1.60
2018-06-25T17:39:44.827Z,1.90
2018-06-25T17:42:25.253Z,1.50
2018-06-25T17:45:05.959Z,2.20
2018-06-25T17:47:45.654Z,4.33
2018-06-25T17:50:25.301Z,2.00
2018-06-25T17:53:06.929Z,4.67
2018-06-25T17:58:31.677Z,2.30
2018-06-25T18:01:10.929Z,2.30
2018-06-25T18:03:51.086Z,2.40
2018-06-25T18:06:29.869Z,2.40
2018-06-25T18:09:10.844Z,4.27
2018-06-25T18:11:50.964Z,2.33
2018-06-25T18:14:27.486Z,3.97
2018-06-25T18:17:05.623Z,2.90
2018-06-25T18:22:26.388Z,3.00
2018-06-25T18:25:06.391Z,4.27
2018-06-25T18:27:46.572Z,3.90
2018-06-25T18:30:28.501Z,2.93
2018-06-25T18:33:08.259Z,5.50
2018-06-25T18:35:45.847Z,4.80
2018-06-25T18:38:28.412Z,5.03
2018-06-25T18:41:09.753Z,5.87
2018-06-25T18:43:49.795Z,5.37
2018-06-25T18:46:25.118Z,5.70
2018-06-25T18:49:09.933Z,5.90
2018-06-25T18:51:48.067Z,6.53
2018-06-25T18:54:30.503Z,5.40
2018-06-25T18:57:09.995Z,7.23
2018-06-25T18:59:49.539Z,6.07
2018-06-25T19:02:31.152Z,5.80
2018-06-25T19:05:11.553Z,5.73
2018-06-25T19:07:53.578Z,7.30
2018-06-25T19:10:33.780Z,6.67
2018-06-25T19:13:12.759Z,7.30
2018-06-25T19:15:52.372Z,6.93
2018-06-25T19:18:32.516Z,6.23
2018-06-25T19:21:11.340Z,5.87
2018-06-25T19:23:50.662Z,6.20
2018-06-25T19:26:29.348Z,5.33
2018-06-25T19:29:08.759Z,7.00
2018-06-25T19:31:49.756Z,5.97
2018-06-25T19:34:29.776Z,5.83
2018-06-25T19:37:10.323Z,4.70
2018-06-25T19:39:51.539Z,5.77
2018-06-25T19:42:31.539Z,5.70
2018-06-25T19:45:12.684Z,5.60
2018-06-25T19:47:53.279Z,5.30
2018-06-25T19:50:35.939Z,5.73
2018-06-25T19:53:15.177Z,5.57
2018-06-25T19:55:56.111Z,6.13
2018-06-25T19:58:35.357Z,6.57
2018-06-25T20:01:15.767Z,5.27
2018-06-25T20:03:54.535Z,8.97
2018-06-25T20:06:33.220Z,5.60
2018-06-25T20:09:14.286Z,6.20
2018-06-25T20:11:55.388Z,6.10
2018-06-25T20:14:36.527Z,5.73
2018-06-25T20:17:15.283Z,6.10
2018-06-25T20:19:56.127Z,6.97
2018-06-25T20:22:36.238Z,5.90
2018-06-25T20:25:17.408Z,6.73
2018-06-25T20:27:55.644Z,6.73
2018-06-25T20:30:35.414Z,6.13
2018-06-25T20:33:15.052Z,5.90
2018-06-25T20:35:55.790Z,6.13
2018-06-25T20:38:33.920Z,6.70
2018-06-25T20:41:11.205Z,6.50
2018-06-25T20:43:53.719Z,6.87
2018-06-25T20:46:34.572Z,5.63
2018-06-25T20:49:15.061Z,6.27
2018-06-25T20:51:56.157Z,7.00
2018-06-25T20:54:36.517Z,6.40
2018-06-25T20:57:15.875Z,7.10
2018-06-25T20:59:43.969Z,6.30
2018-06-25T21:02:11.880Z,6.37
2018-06-25T21:04:38.894Z,7.10
2018-06-25T21:07:06.681Z,5.77
2018-06-25T21:09:33.917Z,6.50
2018-06-25T21:12:14.602Z,6.73
2018-06-25T21:14:56.740Z,5.93
2018-06-25T21:17:24.637Z,6.47
2018-06-25T21:20:05.219Z,6.93
2018-06-25T21:22:32.970Z,7.93
2018-06-25T21:25:10.623Z,7.10
2018-06-25T21:27:37.507Z,6.13
2018-06-25T21:30:08.005Z,6.60
2018-06-25T21:32:37.672Z,7.07
2018-06-25T21:35:04.637Z,6.20
2018-06-25T21:37:38.326Z,7.43
2018-06-25T21:40:14.360Z,5.70
2018-06-25T21:42:42.126Z,6.80
2018-06-25T21:45:09.153Z,7.07
2018-06-25T21:47:37.702Z,6.27
2018-06-25T21:50:05.654Z,6.00
2018-06-25T21:52:34.438Z,6.47
2018-06-25T21:55:08.937Z,6.63
2018-06-25T21:57:41.560Z,6.37
2018-06-25T22:00:08.565Z,6.20
2018-06-25T22:02:37.893Z,5.17
2018-06-25T22:05:08.388Z,6.07
2018-06-25T22:07:35.271Z,6.17
2018-06-25T22:10:03.069Z,7.13
2018-06-25T22:12:30.045Z,6.27
2018-06-25T22:15:00.449Z,5.30
2018-06-25T22:17:29.930Z,5.93
2018-06-25T22:19:56.848Z,6.10
2018-06-25T22:22:23.693Z,7.50
2018-06-25T22:24:50.689Z,6.43
2018-06-25T22:27:17.644Z,6.93
2018-06-25T22:29:44.580Z,7.13
2018-06-25T22:32:11.557Z,5.90
2018-06-25T22:34:38.584Z,5.97
2018-06-25T22:37:05.424Z,6.77
2018-06-25T22:39:32.529Z,6.10
2018-06-25T22:41:59.649Z,5.70
2018-06-25T22:44:26.520Z,7.47
2018-06-25T22:46:53.512Z,6.33
2018-06-25T22:49:20.430Z,6.43
2018-06-25T22:51:48.082Z,7.53
2018-06-25T22:54:15.782Z,9.43
2018-06-25T22:56:42.709Z,6.90
2018-06-25T22:59:10.404Z,6.93
2018-06-25T23:01:37.317Z,11.13
2018-06-25T23:04:05.044Z,6.60
2018-06-25T23:06:31.912Z,9.30
2018-06-25T23:08:58.836Z,6.93
2018-06-25T23:11:25.813Z,7.00
2018-06-25T23:13:53.427Z,9.53
2018-06-25T23:16:20.375Z,7.13
2018-06-25T23:18:47.321Z,6.53
2018-06-25T23:21:14.229Z,7.77
2018-06-25T23:23:41.161Z,6.67
2018-06-25T23:26:08.893Z,6.70
2018-06-25T23:28:35.753Z,7.07
2018-06-25T23:31:02.675Z,6.47
2018-06-25T23:33:29.601Z,8.67
2018-06-25T23:35:56.571Z,7.10
2018-06-25T23:38:23.500Z,7.50
2018-06-25T23:40:50.393Z,7.03
2018-06-25T23:43:18.062Z,7.43
2018-06-25T23:45:45.679Z,7.67
2018-06-25T23:48:12.620Z,7.53
2018-06-25T23:50:39.501Z,8.70
2018-06-25T23:53:06.474Z,6.97
2018-06-25T23:55:33.436Z,7.40
2018-06-25T23:58:00.373Z,6.90
